Grand Gorge, New York
Current Conditions -  °F | °C
As of 2:08 AM on Sunday 26 Oct 2014 (Local Time) from KALB Reporting Station
Thunderstorm Thunderstorm  
Wind Chill: 51°   Ceiling: 3500
Heat Index: 51°   Visibility: 4mi
Dew Point: 44°   Wind: 14mph
Humidity: 77%   Direction: 280°W
Pressure: 29.54"   Gusts: 25mph
Location:  42.36°N, 74.49°W
Report Text: KALB 260608Z 28012G22KT 4SM -TSRA BKN035CB BKN042 OVC055 11/07 A2954 RMK AO2 RAB0558GSB05E07 OCNL LTGICCG E-SW TS E-SW MOV SE P0005 T01060067 $
Loading
Personal Weather Stations






























Interactive Weather Map New forecast layout! Learn more

10-Day Weather Forecast

Advertisements
Track Severe Weather on mobile